ロンドン/ヒースロー の空港の天気 - METARとTAF

ロンドン・ヒースロー空港 ( EGLL / LHR ) - イギリス ロンドン
飛行場実況気象(Metar)
観測時間06/24 10:50 BST (06/24 09:50 UTC)
風向・風速西南西 3m/s
視程10km以上
天気現象
なし
気温23℃
湿度73%
気圧1015hPa
METAREGLL 240950Z AUTO 25006KT 220V280 9999 NCD 23/18 Q1015 NOSIG
過去の天気等 Google飛行場航空写真 Wunderground天気予報

過去48時間のMETAR

飛行場予報(TAF)
発表時間: 6/24 05:54 BST (6/24 04:54 UTC)
予報対象時間: 24日7時 BST ~ 25日13時 BST
風向・風速不定 2m/s
視程5000m
天気現象煙霧
少しの雲 雲底高度 1460m
24日7時 BST ~ 24日10時 BST に徐々に
視程10km以上
天気現象運行に影響にある天気現象が終了
24日10時 BST ~ 24日23時 BST に 確率 30% で一時的に
視程7000m
天気現象しゅう雨
24日23時 BST ~ 25日5時 BST に 確率 40% で一時的に
視程2000m
天気現象強い雷雨
全天の8割程度の雲 雲底高度 370m
全天の8割程度の積乱雲 雲底高度 1460m
25日5時 BST ~ 25日8時 BST に 確率 30% で一時的に
視程3000m
天気現象雷雨 もや
全天の8割程度の雲 雲底高度 90m
全天の8割程度の積乱雲 雲底高度 1460m
25日8時 BST ~ 25日12時 BST に一時的に
視程8000m
全天の8割程度の雲 雲底高度 430m
TAF EGLL 240454Z 2406/2512 VRB04KT 5000 HZ FEW048
BECMG 2406/2409 9999 NSW
PROB30 TEMPO 2409/2422 7000 SHRA
PROB40 TEMPO 2422/2504 2000 +TSRA BKN012 BKN048CB
PROB30 TEMPO 2504/2507 3000 TSRA BR BKN003 BKN048CB
TEMPO 2507/2511 8000 BKN014